createdAt,value
2016-12-12T00:00:23.229Z,0
2016-12-12T00:01:33.277Z,0
2016-12-12T00:02:43.308Z,0
2016-12-12T00:03:53.053Z,0
2016-12-12T00:05:03.417Z,0
2016-12-12T00:06:13.767Z,0
2016-12-12T00:07:23.785Z,0
2016-12-12T00:08:33.802Z,0
2016-12-12T00:09:43.823Z,0
2016-12-12T00:10:54.161Z,0
2016-12-12T00:12:04.516Z,0
2016-12-12T00:13:14.543Z,0
2016-12-12T00:14:24.879Z,0
2016-12-12T00:15:35.263Z,0
2016-12-12T00:16:45.599Z,0
2016-12-12T00:17:55.931Z,0
2016-12-12T00:19:06.268Z,0
2016-12-12T00:20:16.615Z,0
2016-12-12T00:21:26.955Z,0
2016-12-12T00:22:37.328Z,0
2016-12-12T00:23:47.659Z,0
2016-12-12T00:24:57.367Z,0
2016-12-12T00:26:07.382Z,0
2016-12-12T00:27:17.717Z,0
2016-12-12T00:28:28.075Z,0
2016-12-12T00:29:38.098Z,0
2016-12-12T00:30:48.419Z,0
2016-12-12T00:31:58.444Z,0
2016-12-12T00:33:08.147Z,0
2016-12-12T00:34:17.544Z,0
2016-12-12T00:35:27.881Z,0
2016-12-12T00:36:37.586Z,0
2016-12-12T00:37:47.610Z,0
2016-12-12T00:38:57.626Z,0
2016-12-12T00:40:07.658Z,0
2016-12-12T00:41:18.000Z,0
2016-12-12T00:42:27.383Z,0
2016-12-12T00:43:37.388Z,0
2016-12-12T00:44:47.724Z,0
2016-12-12T00:45:57.126Z,0
2016-12-12T00:47:07.154Z,0
2016-12-12T00:48:17.176Z,0
2016-12-12T00:49:27.187Z,0
2016-12-12T00:50:37.520Z,0
2016-12-12T00:51:47.230Z,0
2016-12-12T00:52:57.606Z,0
2016-12-12T00:54:07.635Z,0
2016-12-12T00:55:17.665Z,0
2016-12-12T00:56:27.718Z,0
2016-12-12T00:57:38.074Z,0
2016-12-12T00:58:47.782Z,0
2016-12-12T00:59:57.833Z,0
2016-12-12T01:01:07.535Z,0
2016-12-12T01:02:17.886Z,0
2016-12-12T01:03:28.213Z,0
2016-12-12T01:04:38.552Z,0
2016-12-12T01:05:48.896Z,0
2016-12-12T01:06:59.249Z,0
2016-12-12T01:08:08.951Z,0
2016-12-12T01:09:18.976Z,0
2016-12-12T01:10:29.306Z,0
2016-12-12T01:11:39.631Z,0
2016-12-12T01:12:49.330Z,0
2016-12-12T01:13:59.038Z,0
2016-12-12T01:15:09.377Z,0
2016-12-12T01:16:18.772Z,0
2016-12-12T01:17:28.474Z,0
2016-12-12T01:18:38.493Z,0
2016-12-12T01:19:48.512Z,0
2016-12-12T01:20:58.880Z,0
2016-12-12T01:22:09.200Z,0
2016-12-12T01:23:19.535Z,0
2016-12-12T01:24:29.549Z,0
2016-12-12T01:25:39.576Z,0
2016-12-12T01:26:49.287Z,0
2016-12-12T01:27:59.304Z,0
2016-12-12T01:29:09.637Z,0
2016-12-12T01:30:19.977Z,0
2016-12-12T01:31:30.065Z,0
2016-12-12T01:32:40.095Z,0
2016-12-12T01:33:50.426Z,0
2016-12-12T01:35:00.450Z,0
2016-12-12T01:36:10.148Z,0
2016-12-12T01:37:20.168Z,0
2016-12-12T01:38:30.505Z,0
2016-12-12T01:39:40.212Z,0
2016-12-12T01:40:50.540Z,0
2016-12-12T01:42:00.265Z,0
2016-12-12T01:43:10.278Z,0
2016-12-12T01:44:19.988Z,0
2016-12-12T01:45:29.991Z,0
2016-12-12T01:46:40.318Z,0
2016-12-12T01:47:50.640Z,0
2016-12-12T01:49:00.354Z,0
2016-12-12T01:50:10.684Z,0
2016-12-12T01:51:20.704Z,0
2016-12-12T01:52:31.041Z,0
2016-12-12T01:53:41.066Z,0
2016-12-12T01:54:51.151Z,0
2016-12-12T01:56:01.476Z,0
2016-12-12T01:57:11.807Z,0
2016-12-12T01:58:21.839Z,0
2016-12-12T01:59:31.857Z,0
2016-12-12T02:00:41.883Z,0
2016-12-12T02:01:51.905Z,0
2016-12-12T02:03:01.622Z,0
2016-12-12T02:04:11.648Z,0
2016-12-12T02:05:21.973Z,0
2016-12-12T02:06:32.297Z,0
2016-12-12T02:07:42.638Z,0
2016-12-12T02:08:52.669Z,0
2016-12-12T02:10:02.716Z,0
2016-12-12T02:11:12.732Z,0
2016-12-12T02:12:23.056Z,0
2016-12-12T02:13:33.113Z,0
2016-12-12T02:14:43.449Z,0
2016-12-12T02:15:53.464Z,0
2016-12-12T02:17:03.534Z,0
2016-12-12T02:18:13.872Z,0
2016-12-12T02:19:23.900Z,0
2016-12-12T02:20:34.231Z,0
2016-12-12T02:21:44.575Z,0
2016-12-12T02:22:54.907Z,0
2016-12-12T02:24:05.243Z,0
2016-12-12T02:25:14.978Z,0
2016-12-12T02:26:24.985Z,0
2016-12-12T02:27:35.327Z,0
2016-12-12T02:28:45.343Z,0
2016-12-12T02:29:55.665Z,0
2016-12-12T02:31:06.002Z,0
2016-12-12T02:32:16.009Z,0
2016-12-12T02:33:26.030Z,0
2016-12-12T02:34:35.727Z,0
2016-12-12T02:35:46.057Z,0
2016-12-12T02:36:56.395Z,0
2016-12-12T02:38:06.714Z,0
2016-12-12T02:39:16.743Z,0
2016-12-12T02:40:26.446Z,0
2016-12-12T02:41:36.497Z,0
2016-12-12T02:42:46.230Z,0
2016-12-12T02:43:56.572Z,0
2016-12-12T02:45:06.598Z,0
2016-12-12T02:46:16.295Z,0
2016-12-12T02:47:26.626Z,0
2016-12-12T02:48:36.672Z,0
2016-12-12T02:49:46.370Z,0
2016-12-12T02:50:56.073Z,0
2016-12-12T02:52:06.084Z,0
2016-12-12T02:53:15.795Z,0
2016-12-12T02:54:26.115Z,0
2016-12-12T02:55:36.435Z,0
2016-12-12T02:56:46.756Z,0
2016-12-12T02:57:57.087Z,0
2016-12-12T02:59:07.119Z,0
2016-12-12T03:00:17.140Z,0
2016-12-12T03:01:27.472Z,0
2016-12-12T03:33:21.535Z,0
2016-12-12T03:34:31.535Z,0
2016-12-12T03:35:41.568Z,0
2016-12-12T03:36:51.893Z,0
2016-12-12T03:38:02.214Z,0
2016-12-12T03:39:12.232Z,0
2016-12-12T03:40:22.562Z,0
2016-12-12T03:41:32.875Z,0
2016-12-12T03:42:43.218Z,0
2016-12-12T03:43:52.960Z,0
2016-12-12T03:45:03.024Z,0
2016-12-12T03:46:13.055Z,0
2016-12-12T03:47:23.405Z,0
2016-12-12T03:48:33.739Z,0
2016-12-12T03:49:43.791Z,0
2016-12-12T03:50:53.187Z,0
2016-12-12T03:52:03.205Z,0
2016-12-12T03:53:13.220Z,0
2016-12-12T03:54:23.554Z,0
2016-12-12T03:55:33.895Z,0
2016-12-12T03:56:43.912Z,0
2016-12-12T03:57:54.249Z,0
2016-12-12T03:59:04.265Z,0
2016-12-12T04:00:14.589Z,0
2016-12-12T04:01:24.613Z,0
2016-12-12T04:02:34.339Z,0
2016-12-12T04:03:44.669Z,0
2016-12-12T04:04:55.026Z,0
2016-12-12T04:06:04.790Z,0
2016-12-12T04:07:15.111Z,0
2016-12-12T04:08:24.807Z,0
2016-12-12T04:09:35.144Z,0
2016-12-12T04:10:45.467Z,0
2016-12-12T04:11:55.844Z,0
2016-12-12T04:13:05.565Z,0
2016-12-12T04:14:15.671Z,0
2016-12-12T04:15:26.063Z,0
2016-12-12T04:16:36.385Z,0
2016-12-12T04:17:46.398Z,0
2016-12-12T04:18:56.408Z,0
2016-12-12T04:20:06.429Z,0
2016-12-12T04:21:16.146Z,0
2016-12-12T04:22:26.162Z,0
2016-12-12T04:23:36.496Z,0
2016-12-12T04:24:46.820Z,0
2016-12-12T04:25:56.847Z,0
2016-12-12T04:27:06.893Z,0
2016-12-12T04:28:17.207Z,0
2016-12-12T04:29:27.217Z,0
2016-12-12T04:30:37.251Z,0
2016-12-12T04:31:47.250Z,0
2016-12-12T04:32:57.264Z,0
2016-12-12T04:34:07.623Z,0
2016-12-12T04:35:17.956Z,0
2016-12-12T04:36:28.278Z,0
2016-12-12T04:37:38.288Z,0
2016-12-12T04:38:48.626Z,0
2016-12-12T04:39:58.965Z,0
2016-12-12T04:41:09.298Z,0
2016-12-12T04:42:19.620Z,0
2016-12-12T04:43:29.374Z,0
2016-12-12T04:44:39.401Z,0
2016-12-12T04:45:49.728Z,0
2016-12-12T04:46:59.740Z,0
2016-12-12T04:48:10.067Z,0
2016-12-12T04:49:19.804Z,0
2016-12-12T04:50:29.821Z,0
2016-12-12T04:51:40.143Z,0
2016-12-12T04:52:49.850Z,0
2016-12-12T04:53:59.861Z,0
2016-12-12T04:55:10.226Z,0
2016-12-12T04:56:20.557Z,0
2016-12-12T04:57:30.889Z,0
2016-12-12T04:58:40.912Z,0
2016-12-12T04:59:50.931Z,0
2016-12-12T05:01:00.955Z,0
2016-12-12T05:02:11.286Z,0
2016-12-12T05:03:21.714Z,0
2016-12-12T05:04:32.079Z,0
2016-12-12T05:05:42.106Z,0
2016-12-12T05:06:52.427Z,0
2016-12-12T05:08:02.434Z,0
2016-12-12T05:09:12.771Z,0
2016-12-12T05:10:23.092Z,0
2016-12-12T05:11:33.429Z,0
2016-12-12T05:12:43.815Z,0
2016-12-12T05:13:53.857Z,0
2016-12-12T05:15:04.189Z,0
2016-12-12T05:16:14.511Z,0
2016-12-12T05:17:24.837Z,0
2016-12-12T05:18:35.164Z,0
2016-12-12T05:19:45.515Z,0
2016-12-12T05:20:55.876Z,0
2016-12-12T05:22:05.890Z,0
2016-12-12T05:23:15.908Z,0
2016-12-12T05:24:26.237Z,0
2016-12-12T05:25:36.611Z,0
2016-12-12T05:26:46.626Z,0
2016-12-12T05:27:56.953Z,0
2016-12-12T05:29:06.651Z,0
2016-12-12T05:30:16.970Z,0
2016-12-12T05:31:26.999Z,0
2016-12-12T05:32:37.020Z,0
2016-12-12T05:33:46.727Z,0
2016-12-12T05:34:56.773Z,0
2016-12-12T05:36:07.100Z,0
2016-12-12T05:37:17.443Z,0
2016-12-12T05:38:27.454Z,0
2016-12-12T05:39:37.789Z,0
2016-12-12T05:40:48.130Z,0
2016-12-12T05:41:58.454Z,0
2016-12-12T05:43:08.462Z,0
2016-12-12T05:44:18.793Z,0
2016-12-12T05:45:28.809Z,0
2016-12-12T05:46:38.851Z,0
2016-12-12T05:47:49.218Z,0
2016-12-12T05:48:59.246Z,0
2016-12-12T05:50:09.581Z,0
2016-12-12T05:51:19.593Z,0
2016-12-12T05:52:29.289Z,0
2016-12-12T05:53:39.302Z,0
2016-12-12T05:54:49.316Z,0
2016-12-12T05:55:59.335Z,0
2016-12-12T05:57:09.683Z,0
2016-12-12T05:58:20.020Z,0
2016-12-12T05:59:30.402Z,0
2016-12-12T06:00:40.737Z,0
2016-12-12T06:01:50.453Z,0
2016-12-12T06:03:00.451Z,0
2016-12-12T06:04:10.502Z,0
2016-12-12T06:05:20.524Z,0
2016-12-12T06:06:30.896Z,0
2016-12-12T06:07:40.918Z,4
2016-12-12T06:08:51.259Z,0
2016-12-12T06:10:01.286Z,4
2016-12-12T06:11:11.618Z,0
2016-12-12T06:12:21.318Z,0
2016-12-12T06:13:31.341Z,4
2016-12-12T06:14:41.688Z,4
2016-12-12T06:15:51.397Z,4
2016-12-12T06:17:01.182Z,4
2016-12-12T06:18:11.525Z,4
2016-12-12T06:19:21.859Z,8
2016-12-12T06:20:31.876Z,8
2016-12-12T06:21:41.891Z,8
2016-12-12T06:22:51.906Z,12
2016-12-12T06:24:02.243Z,12
2016-12-12T06:25:11.949Z,16
2016-12-12T06:26:22.271Z,12
2016-12-12T06:27:32.597Z,20
2016-12-12T06:28:42.925Z,20
2016-12-12T06:29:52.636Z,24
2016-12-12T06:31:03.008Z,28
2016-12-12T06:32:13.024Z,32
2016-12-12T06:33:23.341Z,44
2016-12-12T06:34:33.362Z,56
2016-12-12T06:35:43.376Z,72
2016-12-12T06:36:53.731Z,84
2016-12-12T06:38:04.068Z,88
2016-12-12T06:39:14.405Z,96
2016-12-12T06:40:24.733Z,104
2016-12-12T06:41:35.057Z,112
2016-12-12T06:42:44.465Z,116
2016-12-12T06:43:54.798Z,128
2016-12-12T06:45:05.137Z,140
2016-12-12T06:46:15.470Z,156
2016-12-12T06:47:25.810Z,184
2016-12-12T06:48:35.823Z,220
2016-12-12T06:49:45.875Z,264
2016-12-12T06:50:55.886Z,312
2016-12-12T06:52:05.592Z,348
2016-12-12T06:53:15.620Z,368
2016-12-12T06:54:25.952Z,388
2016-12-12T06:55:35.687Z,416
2016-12-12T06:56:46.020Z,444
2016-12-12T06:57:56.357Z,464
2016-12-12T06:59:06.693Z,480
2016-12-12T07:00:15.779Z,500
2016-12-12T07:01:26.102Z,532
2016-12-12T07:02:36.372Z,576
2016-12-12T07:03:46.404Z,584
2016-12-12T07:04:56.437Z,624
2016-12-12T07:06:06.462Z,608
2016-12-12T07:07:16.794Z,660
2016-12-12T07:08:27.203Z,700
2016-12-12T07:09:37.218Z,736
2016-12-12T07:10:47.471Z,764
2016-12-12T07:11:57.836Z,788
2016-12-12T07:13:07.880Z,764
2016-12-12T07:14:18.210Z,756
2016-12-12T07:15:27.926Z,776
2016-12-12T07:16:38.255Z,828
2016-12-12T07:17:48.590Z,880
2016-12-12T07:18:58.312Z,924
2016-12-12T07:20:08.329Z,960
2016-12-12T07:21:18.665Z,980
2016-12-12T07:22:28.994Z,968
2016-12-12T07:23:39.324Z,920
2016-12-12T07:24:49.669Z,856
2016-12-12T07:25:59.692Z,800
2016-12-12T07:27:10.026Z,800
2016-12-12T07:28:20.375Z,744
2016-12-12T07:29:30.385Z,728
2016-12-12T07:30:40.425Z,736
2016-12-12T07:31:50.454Z,720
2016-12-12T07:33:00.469Z,692
2016-12-12T07:34:10.794Z,692
2016-12-12T07:35:21.157Z,684
2016-12-12T07:36:31.484Z,708
2016-12-12T07:37:41.517Z,744
2016-12-12T07:38:51.542Z,828
2016-12-12T07:40:01.877Z,984
2016-12-12T07:41:11.895Z,916
2016-12-12T07:42:22.214Z,848
2016-12-12T07:43:32.224Z,836
2016-12-12T07:44:42.254Z,824
2016-12-12T07:45:52.316Z,800
2016-12-12T07:47:02.638Z,800
2016-12-12T07:48:12.976Z,888
2016-12-12T07:49:22.991Z,1060
2016-12-12T07:50:33.373Z,1248
2016-12-12T07:51:43.705Z,1256
2016-12-12T07:52:53.457Z,1168
2016-12-12T07:54:03.474Z,1172
2016-12-12T07:55:13.813Z,1164
2016-12-12T07:56:23.847Z,1232
2016-12-12T07:57:34.187Z,1452
2016-12-12T07:58:44.212Z,1556
2016-12-12T07:59:54.243Z,1680
2016-12-12T08:01:03.995Z,1700
2016-12-12T08:02:14.322Z,1592
2016-12-12T08:03:24.664Z,1672
2016-12-12T08:04:34.374Z,1796
2016-12-12T08:05:44.418Z,1796
2016-12-12T08:06:54.758Z,1908
2016-12-12T08:08:05.104Z,2056
2016-12-12T08:09:15.126Z,2164
2016-12-12T08:10:24.829Z,2332
2016-12-12T08:11:34.864Z,2252
2016-12-12T08:12:45.190Z,1988
2016-12-12T08:13:55.573Z,1600
2016-12-12T08:15:05.595Z,1232
2016-12-12T08:16:15.920Z,916
2016-12-12T08:17:25.319Z,732
2016-12-12T08:18:35.641Z,716
2016-12-12T08:19:45.338Z,812
2016-12-12T08:20:55.370Z,940
2016-12-12T08:22:05.377Z,1024
2016-12-12T08:23:15.393Z,1112
2016-12-12T08:24:25.109Z,1292
2016-12-12T08:25:34.561Z,1376
2016-12-12T08:26:44.897Z,1316
2016-12-12T08:27:54.596Z,1392
2016-12-12T08:29:04.610Z,1636
2016-12-12T08:30:14.630Z,2008
2016-12-12T08:31:24.644Z,2460
2016-12-12T08:32:34.971Z,2804
2016-12-12T08:33:45.323Z,2664
2016-12-12T08:34:55.644Z,2360
2016-12-12T08:36:05.977Z,2344
2016-12-12T08:37:16.312Z,2312
2016-12-12T08:38:26.340Z,2028
2016-12-12T08:39:36.671Z,1744
2016-12-12T08:40:46.690Z,1656
2016-12-12T08:41:57.054Z,1680
2016-12-12T08:43:06.765Z,1832
2016-12-12T08:44:17.103Z,1980
2016-12-12T08:45:27.120Z,2080
2016-12-12T08:46:37.453Z,2296
2016-12-12T08:47:47.775Z,2404
2016-12-12T08:48:58.110Z,2016
2016-12-12T08:50:08.453Z,1488
2016-12-12T08:51:18.788Z,1032
2016-12-12T08:52:29.115Z,712
2016-12-12T08:53:39.132Z,572
2016-12-12T08:54:49.209Z,608
2016-12-12T08:55:59.236Z,732
2016-12-12T08:57:09.261Z,960
2016-12-12T08:58:19.598Z,1176
2016-12-12T08:59:29.615Z,1328
2016-12-12T09:00:39.952Z,1316
2016-12-12T09:01:50.277Z,1008
2016-12-12T09:02:59.986Z,796
2016-12-12T09:04:10.003Z,708
2016-12-12T09:05:20.034Z,688
2016-12-12T09:06:30.050Z,724
2016-12-12T09:07:39.454Z,780
2016-12-12T09:08:49.474Z,852
2016-12-12T09:09:59.803Z,876
2016-12-12T09:11:09.856Z,948
2016-12-12T09:12:19.923Z,1072
2016-12-12T09:13:29.633Z,1252
2016-12-12T09:14:39.958Z,1404
2016-12-12T09:15:50.290Z,1524
2016-12-12T09:17:00.320Z,1804
2016-12-12T09:18:10.642Z,2040
2016-12-12T09:19:20.978Z,2268
2016-12-12T09:20:31.006Z,2228
2016-12-12T09:21:41.337Z,2076
2016-12-12T09:22:51.039Z,1564
2016-12-12T09:24:01.382Z,1120
2016-12-12T09:25:11.392Z,852
2016-12-12T09:26:21.096Z,772
2016-12-12T09:27:31.435Z,728
2016-12-12T09:28:41.812Z,740
2016-12-12T09:29:52.139Z,816
2016-12-12T09:31:01.846Z,1144
2016-12-12T09:32:11.865Z,1400
2016-12-12T09:33:21.890Z,1492
2016-12-12T09:34:31.601Z,1556
2016-12-12T09:35:41.658Z,1800
2016-12-12T09:36:51.667Z,1828
2016-12-12T09:38:01.367Z,1828
2016-12-12T09:39:11.412Z,1648
2016-12-12T09:40:21.420Z,1408
2016-12-12T09:41:31.434Z,1220
2016-12-12T09:42:41.758Z,1060
2016-12-12T09:43:51.770Z,992
2016-12-12T09:45:02.105Z,992
2016-12-12T09:46:11.816Z,1092
2016-12-12T09:47:22.151Z,1120
2016-12-12T09:48:32.166Z,1288
2016-12-12T09:49:42.499Z,1496
2016-12-12T09:50:52.854Z,1668
2016-12-12T09:52:02.896Z,1624
2016-12-12T09:53:12.988Z,1720
2016-12-12T09:54:23.310Z,1888
2016-12-12T09:55:33.010Z,1852
2016-12-12T09:56:43.018Z,1668
2016-12-12T09:57:53.043Z,1744
2016-12-12T09:59:03.387Z,2028
2016-12-12T10:00:13.405Z,2164
2016-12-12T10:01:23.424Z,1864
2016-12-12T10:02:33.436Z,1564
2016-12-12T10:03:43.479Z,1636
2016-12-12T10:04:53.186Z,1620
2016-12-12T10:06:03.202Z,1524
2016-12-12T10:07:13.534Z,1584
2016-12-12T10:08:23.559Z,1752
2016-12-12T10:09:33.886Z,1984
2016-12-12T10:10:43.917Z,2212
2016-12-12T10:11:53.954Z,2256
2016-12-12T10:13:04.294Z,2268
2016-12-12T10:14:14.645Z,2540
2016-12-12T10:15:24.971Z,2908
2016-12-12T10:16:34.733Z,3036
2016-12-12T10:17:44.753Z,2476
2016-12-12T10:18:55.091Z,2400
2016-12-12T10:20:05.112Z,2860
2016-12-12T10:21:15.135Z,2592
2016-12-12T10:22:25.145Z,2416
2016-12-12T10:23:34.872Z,2468
2016-12-12T10:24:44.888Z,2128
2016-12-12T10:25:55.209Z,1848
2016-12-12T10:27:05.548Z,1872
2016-12-12T10:28:14.940Z,1864
2016-12-12T10:29:24.659Z,1692
2016-12-12T10:30:34.686Z,1548
2016-12-12T10:31:44.713Z,1888
2016-12-12T10:32:55.049Z,2436
2016-12-12T10:34:05.076Z,2524
2016-12-12T10:35:15.096Z,2820
2016-12-12T10:36:25.407Z,2668
2016-12-12T10:37:35.740Z,2588
2016-12-12T10:38:45.451Z,2264
2016-12-12T10:39:55.791Z,2104
2016-12-12T10:41:05.497Z,1976
2016-12-12T10:42:15.844Z,2188
2016-12-12T10:43:25.554Z,2480
2016-12-12T10:44:35.889Z,2144
2016-12-12T10:45:45.920Z,1844
2016-12-12T10:46:55.952Z,1744
2016-12-12T10:48:05.968Z,1584
2016-12-12T10:49:16.309Z,1724
2016-12-12T10:50:26.637Z,2088
2016-12-12T10:51:36.639Z,2248
2016-12-12T10:52:46.974Z,2072
2016-12-12T10:53:57.309Z,2208
2016-12-12T10:55:07.655Z,2536
2016-12-12T10:56:17.927Z,2344
2016-12-12T10:57:27.936Z,2140
2016-12-12T10:58:37.651Z,2292
2016-12-12T10:59:47.352Z,2292
2016-12-12T11:00:57.375Z,2468
2016-12-12T11:02:07.732Z,2628
2016-12-12T11:03:17.760Z,2516
2016-12-12T11:04:27.806Z,2700
2016-12-12T11:05:37.503Z,2548
2016-12-12T11:06:47.524Z,2880
2016-12-12T11:07:57.221Z,2824
2016-12-12T11:09:07.234Z,2528
2016-12-12T11:10:17.255Z,2384
2016-12-12T11:11:27.280Z,2440
2016-12-12T11:12:37.627Z,2604
2016-12-12T11:13:47.956Z,3076
2016-12-12T11:14:57.658Z,3464
2016-12-12T11:16:07.991Z,3568
2016-12-12T11:17:18.325Z,3908
2016-12-12T11:18:28.661Z,3228
2016-12-12T11:19:38.984Z,3476
2016-12-12T11:20:48.694Z,4892
2016-12-12T11:21:59.037Z,3112
2016-12-12T11:23:08.748Z,2756
2016-12-12T11:24:18.796Z,2732
2016-12-12T11:26:53.123Z,2776
2016-12-12T11:28:03.160Z,2448
2016-12-12T11:29:12.876Z,2240
2016-12-12T11:30:22.900Z,3068
2016-12-12T11:31:33.269Z,2068
2016-12-12T11:32:43.642Z,1940
2016-12-12T11:33:53.983Z,1860
2016-12-12T11:35:04.030Z,1576
2016-12-12T11:36:14.357Z,1576
2016-12-12T11:37:24.383Z,1476
2016-12-12T11:38:34.412Z,1380
2016-12-12T11:39:44.728Z,1392
2016-12-12T11:40:55.074Z,1456
2016-12-12T11:42:05.407Z,1424
2016-12-12T11:43:15.740Z,1516
2016-12-12T11:44:26.063Z,1736
2016-12-12T11:45:36.384Z,1796
2016-12-12T11:46:45.781Z,1820
2016-12-12T11:47:56.108Z,1776
2016-12-12T11:49:06.464Z,1632
2016-12-12T11:50:16.490Z,1708
2016-12-12T11:51:26.518Z,1784
2016-12-12T11:52:36.865Z,1964
2016-12-12T11:53:46.568Z,1768
2016-12-12T11:54:56.908Z,1712
2016-12-12T11:56:07.245Z,1368
2016-12-12T11:57:17.281Z,1388
2016-12-12T11:58:27.614Z,1236
2016-12-12T11:59:37.942Z,1240
2016-12-12T12:00:48.324Z,1048
2016-12-12T12:01:58.352Z,920
2016-12-12T12:03:08.681Z,968
2016-12-12T12:04:18.716Z,1256
2016-12-12T12:05:29.054Z,1256
2016-12-12T12:06:39.072Z,1088
2016-12-12T12:07:49.436Z,1200
2016-12-12T12:08:59.458Z,1452
2016-12-12T12:10:09.475Z,1524
2016-12-12T12:11:19.516Z,1676
2016-12-12T12:12:29.849Z,1644
2016-12-12T12:13:39.875Z,1608
2016-12-12T12:14:49.889Z,1544
2016-12-12T12:15:59.932Z,1476
2016-12-12T12:17:10.312Z,1624
2016-12-12T12:18:20.035Z,1652
2016-12-12T12:19:30.373Z,1624
2016-12-12T12:20:40.736Z,1828
2016-12-12T12:21:51.091Z,2044
2016-12-12T12:23:01.140Z,2152
2016-12-12T12:24:10.533Z,2300
2016-12-12T12:25:20.889Z,2420
2016-12-12T12:26:31.216Z,2576
2016-12-12T12:27:41.550Z,2672
2016-12-12T12:28:51.271Z,2900
2016-12-12T12:30:01.296Z,2912
2016-12-12T12:31:11.629Z,2556
2016-12-12T12:32:21.969Z,2164
2016-12-12T12:33:32.322Z,2308
2016-12-12T12:34:42.669Z,2640
2016-12-12T12:35:53.016Z,2712
2016-12-12T12:37:03.033Z,2636
2016-12-12T12:38:13.069Z,2504
2016-12-12T12:39:23.076Z,2340
2016-12-12T12:40:33.399Z,1984
2016-12-12T12:41:43.720Z,1576
2016-12-12T12:42:53.421Z,1296
2016-12-12T12:44:03.762Z,1124
2016-12-12T12:45:13.785Z,1596
2016-12-12T12:46:23.506Z,2192
2016-12-12T12:47:33.827Z,2608
2016-12-12T12:48:43.544Z,2756
2016-12-12T12:49:53.881Z,2616
2016-12-12T12:51:04.254Z,2400
2016-12-12T12:52:14.347Z,2256
2016-12-12T12:53:24.067Z,2112
2016-12-12T12:54:34.398Z,1780
2016-12-12T12:55:44.449Z,1864
2016-12-12T12:56:54.471Z,2028
2016-12-12T12:58:04.494Z,2224
2016-12-12T12:59:14.220Z,2368
2016-12-12T13:00:24.559Z,2364
2016-12-12T13:01:34.267Z,2500
2016-12-12T13:02:44.595Z,2728
2016-12-12T13:03:54.612Z,2744
2016-12-12T13:05:04.943Z,2836
2016-12-12T13:06:14.975Z,4204
2016-12-12T13:07:25.326Z,2868
2016-12-12T13:08:35.358Z,2268
2016-12-12T13:09:45.060Z,2040
2016-12-12T13:10:55.450Z,2772
2016-12-12T13:12:05.166Z,2144
2016-12-12T13:13:15.499Z,2336
2016-12-12T13:14:25.833Z,1680
2016-12-12T13:15:36.163Z,2228
2016-12-12T13:16:46.514Z,1680
2016-12-12T13:17:56.535Z,2136
2016-12-12T13:19:06.893Z,1728
2016-12-12T13:20:16.920Z,1796
2016-12-12T13:21:26.945Z,3688
2016-12-12T13:22:37.293Z,2900
2016-12-12T13:23:47.015Z,3500
2016-12-12T13:24:56.725Z,2268
2016-12-12T13:26:07.072Z,2928
2016-12-12T13:27:17.396Z,2060
2016-12-12T13:28:27.718Z,1736
2016-12-12T13:29:38.042Z,1732
2016-12-12T13:30:47.785Z,4256
2016-12-12T13:31:58.138Z,4060
2016-12-12T13:33:07.840Z,4280
2016-12-12T13:34:18.165Z,4496
2016-12-12T13:35:28.515Z,4576
2016-12-12T13:36:38.539Z,4480
2016-12-12T13:37:48.569Z,4344
2016-12-12T13:38:58.907Z,4152
2016-12-12T13:40:08.932Z,3992
2016-12-12T13:41:19.256Z,2180
2016-12-12T13:42:29.282Z,3448
2016-12-12T13:43:39.628Z,3292
2016-12-12T13:44:49.652Z,2932
2016-12-12T13:45:59.971Z,1736
2016-12-12T13:47:10.322Z,1568
2016-12-12T13:48:20.341Z,3360
2016-12-12T13:49:30.367Z,3044
2016-12-12T13:50:40.078Z,3244
2016-12-12T13:51:50.143Z,2328
2016-12-12T13:53:00.208Z,2544
2016-12-12T13:54:10.248Z,2472
2016-12-12T13:55:20.581Z,1088
2016-12-12T13:56:30.912Z,1312
2016-12-12T13:57:40.308Z,1760
2016-12-12T13:58:50.349Z,1828
2016-12-12T14:00:00.360Z,784
2016-12-12T14:01:10.059Z,684
2016-12-12T14:02:20.429Z,388
2016-12-12T14:03:30.508Z,340
2016-12-12T14:04:42.042Z,336
2016-12-12T14:05:52.423Z,392
2016-12-12T14:07:02.925Z,456
2016-12-12T14:08:13.022Z,488
2016-12-12T14:09:22.827Z,572
2016-12-12T14:10:33.217Z,656
2016-12-12T14:11:43.265Z,672
2016-12-12T14:12:53.842Z,716
2016-12-12T14:14:04.271Z,756
2016-12-12T14:15:14.790Z,736
2016-12-12T14:16:24.845Z,704
2016-12-12T14:17:35.241Z,632
2016-12-12T14:18:45.589Z,568
2016-12-12T14:19:55.949Z,512
2016-12-12T14:21:05.991Z,472
2016-12-12T14:22:16.046Z,444
2016-12-12T14:23:26.410Z,388
2016-12-12T14:24:36.509Z,380
2016-12-12T14:25:46.908Z,416
2016-12-12T14:26:57.244Z,380
2016-12-12T14:28:07.622Z,364
2016-12-12T14:29:17.666Z,416
2016-12-12T14:30:27.697Z,416
2016-12-12T14:31:38.123Z,396
2016-12-12T14:32:47.869Z,404
2016-12-12T14:33:57.941Z,420
2016-12-12T14:35:08.374Z,436
2016-12-12T14:36:18.469Z,456
2016-12-12T14:37:28.546Z,468
2016-12-12T14:38:38.631Z,452
2016-12-12T14:39:48.977Z,416
2016-12-12T14:40:58.376Z,376
2016-12-12T14:42:08.788Z,348
2016-12-12T14:43:18.175Z,332
2016-12-12T14:44:28.524Z,340
2016-12-12T14:45:38.562Z,344
2016-12-12T14:46:48.905Z,336
2016-12-12T14:47:58.932Z,316
2016-12-12T14:49:09.323Z,296
2016-12-12T14:50:19.359Z,280
2016-12-12T14:51:29.401Z,264
2016-12-12T14:52:39.813Z,252
2016-12-12T14:53:50.399Z,236
2016-12-12T14:55:00.415Z,224
2016-12-12T14:56:10.797Z,204
2016-12-12T14:57:20.821Z,188
2016-12-12T14:58:30.861Z,172
2016-12-12T14:59:40.950Z,160
2016-12-12T15:00:51.295Z,140
2016-12-12T15:02:01.050Z,128
2016-12-12T15:03:11.440Z,116
2016-12-12T15:04:21.474Z,104
2016-12-12T15:05:31.499Z,92
2016-12-12T15:06:41.848Z,80
2016-12-12T15:07:52.186Z,68
2016-12-12T15:09:02.531Z,60
2016-12-12T15:10:12.561Z,52
2016-12-12T15:11:22.271Z,48
2016-12-12T15:12:32.007Z,36
2016-12-12T15:13:42.434Z,32
2016-12-12T15:14:52.803Z,28
2016-12-12T15:16:03.155Z,24
2016-12-12T15:17:12.872Z,16
2016-12-12T15:18:22.942Z,16
2016-12-12T15:19:32.988Z,12
2016-12-12T15:20:43.087Z,8
2016-12-12T15:21:53.455Z,8
2016-12-12T15:23:03.795Z,4
2016-12-12T15:24:13.816Z,4
2016-12-12T15:25:24.187Z,4
2016-12-12T15:26:34.534Z,4
2016-12-12T15:27:44.866Z,0
2016-12-12T15:28:55.188Z,4
2016-12-12T15:30:05.529Z,4
2016-12-12T15:31:15.865Z,4
2016-12-12T15:32:26.200Z,4
2016-12-12T15:33:36.540Z,0
2016-12-12T15:34:46.566Z,0
2016-12-12T15:35:56.598Z,0
2016-12-12T15:37:06.946Z,0
2016-12-12T15:38:17.278Z,0
2016-12-12T15:39:26.989Z,0
2016-12-12T15:40:36.706Z,0
2016-12-12T15:41:46.726Z,0
2016-12-12T15:42:56.796Z,0
2016-12-12T15:44:06.816Z,0
2016-12-12T15:45:17.166Z,0
2016-12-12T15:46:27.187Z,0
2016-12-12T15:47:37.209Z,0
2016-12-12T15:48:47.282Z,0
2016-12-12T15:49:56.995Z,0
2016-12-12T15:51:07.041Z,0
2016-12-12T15:52:17.059Z,0
2016-12-12T15:53:27.395Z,0
2016-12-12T15:54:37.781Z,0
2016-12-12T15:55:47.817Z,0
2016-12-12T15:56:57.843Z,0
2016-12-12T15:58:07.886Z,0
2016-12-12T15:59:17.908Z,0
2016-12-12T16:00:27.942Z,0
2016-12-12T16:01:38.295Z,0
2016-12-12T16:02:48.652Z,0
2016-12-12T16:03:59.018Z,0
2016-12-12T16:05:09.050Z,0
2016-12-12T16:06:19.087Z,0
2016-12-12T16:07:29.102Z,0
2016-12-12T16:08:39.118Z,0
2016-12-12T16:09:49.153Z,0
2016-12-12T16:10:59.176Z,0
2016-12-12T16:12:09.515Z,0
2016-12-12T16:13:19.864Z,0
2016-12-12T16:14:29.894Z,0
2016-12-12T16:15:40.249Z,0
2016-12-12T16:16:50.580Z,0
2016-12-12T16:18:00.656Z,0
2016-12-12T16:19:10.675Z,0
2016-12-12T16:20:21.014Z,0
2016-12-12T16:21:31.364Z,0
2016-12-12T16:22:41.696Z,0
2016-12-12T16:23:52.034Z,0
2016-12-12T16:25:02.395Z,0
2016-12-12T16:26:12.748Z,0
2016-12-12T16:27:23.106Z,0
2016-12-12T16:28:33.148Z,0
2016-12-12T16:29:43.172Z,0
2016-12-12T16:30:53.531Z,0
2016-12-12T16:32:03.575Z,0
2016-12-12T16:33:13.290Z,0
2016-12-12T16:34:22.723Z,0
2016-12-12T16:35:32.468Z,0
2016-12-12T16:36:42.182Z,0
2016-12-12T16:37:52.568Z,0
2016-12-12T16:39:02.913Z,0
2016-12-12T16:40:13.275Z,0
2016-12-12T16:41:23.677Z,0
2016-12-12T16:42:34.030Z,0
2016-12-12T16:43:44.059Z,0
2016-12-12T16:44:54.439Z,0
2016-12-12T16:46:04.767Z,0
2016-12-12T16:47:14.790Z,0
2016-12-12T16:48:24.821Z,0
2016-12-12T16:49:35.162Z,0
2016-12-12T16:50:45.198Z,0
2016-12-12T16:51:55.546Z,0
2016-12-12T16:53:05.890Z,0
2016-12-12T16:54:16.249Z,0
2016-12-12T16:55:26.273Z,0
2016-12-12T16:56:36.608Z,0
2016-12-12T16:57:46.665Z,0